Time;durP1;ratioP1;P1;durP2;ratioP2;P2;SDS_P1;SDS_P2;PMS_P1;PMS_P2;Temp;Humidity;BMP_temperature;BMP_pressure;BME280_temperature;BME280_humidity;BME280_pressure;Samples;Min_cycle;Max_cycle;Signal;HPM_P1;HPM_P2
2022/06/10 00:02:07;;;;;;;;;4.50;2.00;;;;;;;;5058368;28;45441;-72
2022/06/10 00:04:39;;;;;;;;;1.50;1.50;;;;;;;;5059882;28;45279;-73
2022/06/10 00:07:07;;;;;;;;;4.33;1.33;;;;;;;;5059806;28;45317;-72
2022/06/10 00:09:32;;;;;;;;;2.00;2.00;;;;;;;;5060129;28;45362;-74
2022/06/10 00:11:57;;;;;;;;;4.50;2.50;;;;;;;;5059344;28;45398;-74
2022/06/10 00:14:23;;;;;;;;;4.75;3.00;;;;;;;;5041574;28;45371;-73
2022/06/10 00:16:51;;;;;;;;;2.50;2.50;;;;;;;;5059930;28;45195;-72
2022/06/10 00:19:17;;;;;;;;;3.33;2.00;;;;;;;;5059934;28;45342;-74
2022/06/10 00:21:42;;;;;;;;;3.50;3.25;;;;;;;;5059405;28;46502;-74
2022/06/10 00:24:07;;;;;;;;;4.25;1.50;;;;;;;;5059468;28;45235;-74
2022/06/10 00:26:34;;;;;;;;;6.50;2.00;;;;;;;;5059679;28;45372;-72
2022/06/10 00:29:00;;;;;;;;;2.50;1.75;;;;;;;;5059833;28;45474;-74
2022/06/10 00:31:26;;;;;;;;;3.00;1.50;;;;;;;;5059345;28;46346;-72
2022/06/10 00:33:52;;;;;;;;;5.00;3.33;;;;;;;;5059462;28;45365;-73
2022/06/10 00:36:19;;;;;;;;;3.00;1.50;;;;;;;;5059522;28;45359;-71
2022/06/10 00:38:45;;;;;;;;;1.75;1.75;;;;;;;;5059580;28;45809;-73
2022/06/10 00:41:11;;;;;;;;;7.25;1.25;;;;;;;;5059189;28;45597;-73
2022/06/10 00:43:36;;;;;;;;;3.00;0.75;;;;;;;;5059227;28;45488;-72
2022/06/10 00:46:07;;;;;;;;;3.00;3.00;;;;;;;;5059464;28;45261;-73
2022/06/10 00:48:44;;;;;;;;;3.00;1.75;;;;;;;;5059645;28;45263;-73
2022/06/10 00:51:13;;;;;;;;;2.00;2.00;;;;;;;;5058192;28;45294;-73
2022/06/10 00:53:39;;;;;;;;;3.00;2.00;;;;;;;;5058958;28;45359;-73
2022/06/10 00:56:07;;;;;;;;;4.33;3.00;;;;;;;;5059105;28;45258;-73
2022/06/10 00:58:47;;;;;;;;;2.00;2.00;;;;;;;;5059365;28;45297;-73
2022/06/10 01:01:13;;;;;;;;;4.25;3.00;;;;;;;;5058735;28;45619;-73
2022/06/10 01:03:40;;;;;;;;;2.25;2.25;;;;;;;;5059131;28;45289;-73
2022/06/10 01:06:05;;;;;;;;;3.50;1.50;;;;;;;;5059083;28;45390;-73
2022/06/10 01:08:31;;;;;;;;;4.25;1.50;;;;;;;;5059196;28;45277;-74
2022/06/10 01:10:56;;;;;;;;;5.00;2.00;;;;;;;;5058697;28;45529;-74
2022/06/10 01:13:30;;;;;;;;;1.75;1.00;;;;;;;;5057622;28;45309;-73
2022/06/10 01:16:02;;;;;;;;;3.25;2.00;;;;;;;;5040463;28;45288;-74
2022/06/10 01:18:35;;;;;;;;;2.00;2.00;;;;;;;;5058893;28;45337;-73
2022/06/10 01:21:03;;;;;;;;;2.50;1.00;;;;;;;;5058529;28;46660;-73
2022/06/10 01:23:47;;;;;;;;;3.75;1.50;;;;;;;;5058688;28;45434;-74
2022/06/10 01:26:15;;;;;;;;;2.00;2.00;;;;;;;;5058721;28;45369;-72
2022/06/10 01:28:46;;;;;;;;;2.75;1.50;;;;;;;;5059105;28;45287;-74
2022/06/10 01:31:15;;;;;;;;;1.25;1.25;;;;;;;;5058437;28;46306;-74
2022/06/10 01:33:55;;;;;;;;;4.50;1.25;;;;;;;;5058562;28;45381;-72
2022/06/10 01:36:33;;;;;;;;;1.00;1.00;;;;;;;;5058659;28;45371;-73
2022/06/10 01:38:58;;;;;;;;;0.50;0.50;;;;;;;;5058745;28;45488;-74
2022/06/10 01:41:44;;;;;;;;;1.00;0.75;;;;;;;;5058018;28;45396;-74
2022/06/10 01:44:27;;;;;;;;;2.25;1.50;;;;;;;;5058279;28;45475;-73
2022/06/10 01:47:02;;;;;;;;;2.25;1.00;;;;;;;;5058302;28;45241;-74
2022/06/10 01:49:32;;;;;;;;;3.50;2.00;;;;;;;;5058716;28;45338;-73
2022/06/10 01:52:04;;;;;;;;;2.50;1.25;;;;;;;;5058093;28;46564;-74
2022/06/10 01:54:40;;;;;;;;;4.00;2.00;;;;;;;;5058195;28;45507;-73
2022/06/10 01:57:10;;;;;;;;;3.67;3.33;;;;;;;;5057746;28;45313;-74
2022/06/10 01:59:51;;;;;;;;;;;;;;;;;;;;;
2022/06/10 02:02:23;;;;;;;;;6.00;2.00;;;;;;;;5052587;28;76022;-72
2022/06/10 02:04:51;;;;;;;;;3.00;1.50;;;;;;;;5057943;28;45434;-73
2022/06/10 02:07:23;;;;;;;;;5.25;1.00;;;;;;;;5058132;28;45340;-73
2022/06/10 02:09:55;;;;;;;;;2.75;1.25;;;;;;;;5058355;28;45306;-74
2022/06/10 02:12:31;;;;;;;;;2.33;2.00;;;;;;;;5057594;28;46566;-74
2022/06/10 02:15:23;;;;;;;;;6.00;2.00;;;;;;;;5057647;28;45365;-74
2022/06/10 02:17:54;;;;;;;;;3.75;1.75;;;;;;;;5055519;28;45269;-73
2022/06/10 02:20:23;;;;;;;;;3.75;1.00;;;;;;;;5058188;28;45481;-73
2022/06/10 02:22:50;;;;;;;;;1.00;1.00;;;;;;;;5057526;28;46322;-73
2022/06/10 02:25:17;;;;;;;;;4.00;2.00;;;;;;;;5057232;28;45530;-74
2022/06/10 02:27:46;;;;;;;;;3.00;1.00;;;;;;;;5057694;28;45394;-74
2022/06/10 02:30:15;;;;;;;;;1.00;1.00;;;;;;;;5056438;28;45425;-73
2022/06/10 02:32:44;;;;;;;;;4.25;2.00;;;;;;;;5057367;28;45767;-74
2022/06/10 02:35:10;;;;;;;;;2.33;2.00;;;;;;;;5057406;28;45164;-73
2022/06/10 02:38:09;;;;;;;;;;;;;;;;;;;;;
2022/06/10 02:40:35;;;;;;;;;3.33;3.00;;;;;;;;5053429;28;64213;-73
2022/06/10 02:43:00;;;;;;;;;2.00;0.50;;;;;;;;5057087;28;47592;-74
2022/06/10 02:45:35;;;;;;;;;2.67;2.33;;;;;;;;5057638;28;45451;-74
2022/06/10 02:48:19;;;;;;;;;2.33;2.00;;;;;;;;5057636;28;45419;-74
2022/06/10 02:50:48;;;;;;;;;3.00;3.00;;;;;;;;5057633;28;45364;-74
2022/06/10 02:53:16;;;;;;;;;2.00;1.00;;;;;;;;5057110;28;46204;-74
2022/06/10 02:55:42;;;;;;;;;3.00;2.50;;;;;;;;5057520;28;45240;-74
2022/06/10 03:01:20;;;;;;;;;3.25;2.75;;;;;;;;5057552;28;45309;-74
2022/06/10 03:03:57;;;;;;;;;2.00;2.00;;;;;;;;5057046;28;47427;-74
2022/06/10 03:06:41;;;;;;;;;2.00;1.75;;;;;;;;5057186;28;45462;-74
2022/06/10 03:09:06;;;;;;;;;1.00;1.00;;;;;;;;5057240;28;45219;-73
2022/06/10 03:11:50;;;;;;;;;2.25;2.00;;;;;;;;5057368;28;45296;-74
2022/06/10 03:14:15;;;;;;;;;2.25;1.25;;;;;;;;5057169;28;46388;-74
2022/06/10 03:16:40;;;;;;;;;2.50;2.00;;;;;;;;5056962;28;45198;-72
2022/06/10 03:19:08;;;;;;;;;5.00;2.00;;;;;;;;5057436;28;45379;-74
2022/06/10 03:21:42;;;;;;;;;3.00;2.00;;;;;;;;5057108;28;45262;-73
2022/06/10 03:24:23;;;;;;;;;3.33;2.00;;;;;;;;5056843;28;45614;-74
2022/06/10 03:26:57;;;;;;;;;3.33;2.33;;;;;;;;5056608;28;45462;-74
2022/06/10 03:29:30;;;;;;;;;3.75;2.00;;;;;;;;5057190;28;45244;-74
2022/06/10 03:32:09;;;;;;;;;1.00;1.00;;;;;;;;5057093;28;45313;-74
2022/06/10 03:34:37;;;;;;;;;2.25;2.25;;;;;;;;5056756;28;45208;-74
2022/06/10 03:37:06;;;;;;;;;2.25;2.25;;;;;;;;5058449;28;45213;-74
2022/06/10 03:39:31;;;;;;;;;2.00;2.00;;;;;;;;5060472;28;45346;-74
2022/06/10 03:42:02;;;;;;;;;3.25;2.00;;;;;;;;5060310;28;45549;-74
2022/06/10 03:44:28;;;;;;;;;4.33;2.00;;;;;;;;5060290;28;46634;-74
2022/06/10 03:46:56;;;;;;;;;3.33;3.33;;;;;;;;5060186;28;45267;-74
2022/06/10 03:49:27;;;;;;;;;5.00;3.00;;;;;;;;5060276;28;45266;-74
2022/06/10 03:51:52;;;;;;;;;4.00;3.00;;;;;;;;5060504;28;45225;-74
2022/06/10 03:54:21;;;;;;;;;3.00;3.00;;;;;;;;5060046;28;46508;-74
2022/06/10 03:56:47;;;;;;;;;4.67;3.00;;;;;;;;5059560;28;45543;-74
2022/06/10 03:59:12;;;;;;;;;2.00;2.00;;;;;;;;5060154;28;45420;-73
2022/06/10 04:01:38;;;;;;;;;4.67;2.00;;;;;;;;5060323;28;45564;-74
2022/06/10 04:04:03;;;;;;;;;4.00;4.00;;;;;;;;5059834;28;45479;-73
2022/06/10 04:06:31;;;;;;;;;3.67;3.67;;;;;;;;5059927;28;45627;-74
2022/06/10 04:08:56;;;;;;;;;3.67;3.67;;;;;;;;5059933;28;45266;-73
2022/06/10 04:11:24;;;;;;;;;5.00;3.00;;;;;;;;5060127;28;45265;-73
2022/06/10 04:13:51;;;;;;;;;1.75;1.75;;;;;;;;5059639;28;46431;-73
2022/06/10 04:16:19;;;;;;;;;4.33;2.33;;;;;;;;5059626;28;45343;-72
2022/06/10 04:19:05;;;;;;;;;4.00;2.00;;;;;;;;5060124;28;45279;-72
2022/06/10 04:21:29;;;;;;;;;3.75;3.00;;;;;;;;5059558;28;45542;-72
2022/06/10 04:23:55;;;;;;;;;3.75;1.50;;;;;;;;5059555;28;45362;-72
2022/06/10 04:26:20;;;;;;;;;4.00;2.00;;;;;;;;5059777;28;45266;-72
2022/06/10 04:28:48;;;;;;;;;5.00;3.00;;;;;;;;5059466;28;45211;-73
2022/06/10 04:31:13;;;;;;;;;2.33;2.33;;;;;;;;5059720;28;45336;-72
2022/06/10 04:33:38;;;;;;;;;2.33;2.33;;;;;;;;5059205;28;46447;-73
2022/06/10 04:36:04;;;;;;;;;3.67;3.00;;;;;;;;5059430;28;45358;-73
2022/06/10 04:38:29;;;;;;;;;4.33;4.00;;;;;;;;5059900;28;45293;-72
2022/06/10 04:40:55;;;;;;;;;3.50;2.00;;;;;;;;5059490;28;45330;-72
2022/06/10 04:43:20;;;;;;;;;11.67;9.33;;;;;;;;5059088;28;46209;-72
2022/06/10 04:45:50;;;;;;;;;7.00;4.00;;;;;;;;5059395;28;45444;-71
2022/06/10 04:48:16;;;;;;;;;3.00;3.00;;;;;;;;5059103;28;45353;-72
2022/06/10 04:50:41;;;;;;;;;2.67;1.00;;;;;;;;5059513;28;45497;-73
2022/06/10 04:53:07;;;;;;;;;6.33;5.67;;;;;;;;5058667;28;46048;-72
2022/06/10 04:55:32;;;;;;;;;5.33;2.33;;;;;;;;5059117;28;45290;-72
2022/06/10 04:57:58;;;;;;;;;3.00;3.00;;;;;;;;5059062;28;45394;-72
2022/06/10 05:00:25;;;;;;;;;5.33;4.00;;;;;;;;5059266;28;45302;-72
2022/06/10 05:03:10;;;;;;;;;4.00;4.00;;;;;;;;5058856;28;46400;-72
2022/06/10 05:05:35;;;;;;;;;3.67;3.67;;;;;;;;5059075;28;45297;-72
2022/06/10 05:08:01;;;;;;;;;4.67;3.67;;;;;;;;5059080;28;45432;-74
2022/06/10 05:10:27;;;;;;;;;16.67;11.00;;;;;;;;5059138;28;45389;-72
2022/06/10 05:12:52;;;;;;;;;3.00;3.00;;;;;;;;5058559;28;47035;-71
2022/06/10 05:15:21;;;;;;;;;7.50;4.25;;;;;;;;5058762;28;45368;-72
2022/06/10 05:17:47;;;;;;;;;3.67;3.00;;;;;;;;5059000;28;45230;-73
2022/06/10 05:20:17;;;;;;;;;6.00;4.67;;;;;;;;5058925;28;45238;-72
2022/06/10 05:22:42;;;;;;;;;4.33;4.33;;;;;;;;5058502;28;46238;-72
2022/06/10 05:25:08;;;;;;;;;5.00;3.25;;;;;;;;5058620;28;45383;-71
2022/06/10 05:27:33;;;;;;;;;7.75;4.00;;;;;;;;5058397;28;45358;-74
2022/06/10 05:29:58;;;;;;;;;2.00;1.00;;;;;;;;5058782;28;45318;-73
2022/06/10 05:32:24;;;;;;;;;5.00;2.00;;;;;;;;5058333;28;45340;-74
2022/06/10 05:34:54;;;;;;;;;3.67;3.67;;;;;;;;5058611;28;45402;-71
2022/06/10 05:37:21;;;;;;;;;12.33;7.00;;;;;;;;5058711;28;45276;-72
2022/06/10 05:39:47;;;;;;;;;4.00;3.00;;;;;;;;5057103;28;45535;-72
2022/06/10 05:42:12;;;;;;;;;3.00;3.00;;;;;;;;5057714;28;46287;-71
2022/06/10 05:44:38;;;;;;;;;6.67;4.00;;;;;;;;5058519;28;45328;-72
2022/06/10 05:47:06;;;;;;;;;3.00;3.00;;;;;;;;5058269;28;45540;-72
2022/06/10 05:49:32;;;;;;;;;7.33;5.00;;;;;;;;5058647;28;45540;-73
2022/06/10 05:51:57;;;;;;;;;5.67;4.00;;;;;;;;5057968;28;45427;-72
2022/06/10 05:54:22;;;;;;;;;9.33;4.67;;;;;;;;5058141;28;45377;-74
2022/06/10 05:56:48;;;;;;;;;3.00;3.00;;;;;;;;5058186;28;45211;-71
2022/06/10 05:59:16;;;;;;;;;4.00;4.00;;;;;;;;5057472;28;45286;-71
2022/06/10 06:01:41;;;;;;;;;4.33;3.00;;;;;;;;5057897;28;46108;-72
2022/06/10 06:04:07;;;;;;;;;5.50;4.00;;;;;;;;5057872;28;45324;-74
2022/06/10 06:06:32;;;;;;;;;5.00;5.00;;;;;;;;5058200;28;45339;-73
2022/06/10 06:08:57;;;;;;;;;6.67;4.33;;;;;;;;5058381;28;45366;-73
2022/06/10 06:11:22;;;;;;;;;51.00;38.67;;;;;;;;5057579;28;47045;-71
2022/06/10 06:13:48;;;;;;;;;31.33;30.00;;;;;;;;5057650;28;45325;-72
2022/06/10 06:16:15;;;;;;;;;10.00;8.33;;;;;;;;5057830;28;45259;-72
2022/06/10 06:18:40;;;;;;;;;5.67;4.67;;;;;;;;5058003;28;45483;-71
2022/06/10 06:21:05;;;;;;;;;11.67;9.67;;;;;;;;5057647;28;46005;-74
2022/06/10 06:23:31;;;;;;;;;6.67;5.67;;;;;;;;5057342;28;45643;-73
2022/06/10 06:25:56;;;;;;;;;12.33;9.33;;;;;;;;5057486;28;45377;-72
2022/06/10 06:28:21;;;;;;;;;6.33;5.33;;;;;;;;5057882;28;45174;-72
2022/06/10 06:30:46;;;;;;;;;18.67;14.67;;;;;;;;5057422;28;46448;-71
2022/06/10 06:33:12;;;;;;;;;6.67;6.00;;;;;;;;5057535;28;45355;-72
2022/06/10 06:35:38;;;;;;;;;6.00;6.00;;;;;;;;5057678;28;45484;-72
2022/06/10 06:38:03;;;;;;;;;5.00;5.00;;;;;;;;5057657;28;45436;-72
2022/06/10 06:40:29;;;;;;;;;5.00;4.00;;;;;;;;5057180;28;45534;-72
2022/06/10 06:42:54;;;;;;;;;5.33;4.00;;;;;;;;5057261;28;45218;-72
2022/06/10 06:45:20;;;;;;;;;6.33;5.00;;;;;;;;5057560;28;45832;-72
2022/06/10 06:47:46;;;;;;;;;4.33;4.33;;;;;;;;5057708;28;45377;-72
2022/06/10 06:50:13;;;;;;;;;4.00;2.00;;;;;;;;5057241;28;46222;-71
2022/06/10 06:52:39;;;;;;;;;5.00;3.50;;;;;;;;5057200;28;45396;-72
2022/06/10 06:55:04;;;;;;;;;4.33;4.00;;;;;;;;5057261;28;45290;-73
2022/06/10 06:57:30;;;;;;;;;3.00;3.00;;;;;;;;5057646;28;45488;-72
2022/06/10 07:00:04;;;;;;;;;5.67;4.00;;;;;;;;5056844;28;46747;-71
2022/06/10 07:02:30;;;;;;;;;6.33;4.00;;;;;;;;5056047;28;45254;-70
2022/06/10 07:04:55;;;;;;;;;4.00;4.00;;;;;;;;5057239;28;45426;-72
2022/06/10 07:07:20;;;;;;;;;5.00;3.33;;;;;;;;5057407;28;45380;-71
2022/06/10 07:09:45;;;;;;;;;2.00;2.00;;;;;;;;5057166;28;45369;-71
2022/06/10 07:12:10;;;;;;;;;2.00;2.00;;;;;;;;5060590;28;45266;-71
2022/06/10 07:14:36;;;;;;;;;2.33;2.33;;;;;;;;5059178;28;45471;-73
2022/06/10 07:17:01;;;;;;;;;3.67;3.33;;;;;;;;5058744;28;45404;-75
2022/06/10 07:19:26;;;;;;;;;4.33;3.00;;;;;;;;5058869;28;47281;-68
2022/06/10 07:21:51;;;;;;;;;6.33;5.33;;;;;;;;5059239;28;45267;-69
2022/06/10 07:24:17;;;;;;;;;3.33;2.67;;;;;;;;5058957;28;45406;-73
2022/06/10 07:26:42;;;;;;;;;2.00;2.00;;;;;;;;5060543;28;45437;-81
2022/06/10 07:29:10;;;;;;;;;2.33;2.33;;;;;;;;5059752;28;45544;-76
2022/06/10 07:31:41;;;;;;;;;2.67;2.67;;;;;;;;5060052;28;45461;-74
2022/06/10 07:34:06;;;;;;;;;2.25;2.00;;;;;;;;5059735;28;45191;-74
2022/06/10 07:36:32;;;;;;;;;3.00;2.00;;;;;;;;5060540;28;45226;-75
2022/06/10 07:38:57;;;;;;;;;1.50;1.00;;;;;;;;5059693;28;46442;-74
2022/06/10 07:44:06;;;;;;;;;4.33;2.67;;;;;;;;5059782;28;45710;-74
2022/06/10 07:46:32;;;;;;;;;13.33;11.33;;;;;;;;5059922;28;45321;-72
2022/06/10 07:48:57;;;;;;;;;2.00;2.00;;;;;;;;5059729;28;45494;-75
2022/06/10 07:51:23;;;;;;;;;4.50;2.00;;;;;;;;5059525;28;45308;-74
2022/06/10 07:53:49;;;;;;;;;3.50;1.25;;;;;;;;5059631;28;45420;-74
2022/06/10 07:56:16;;;;;;;;;3.67;3.00;;;;;;;;5058684;28;45464;-74
2022/06/10 07:58:41;;;;;;;;;4.00;3.00;;;;;;;;5056093;28;46758;-73
2022/06/10 08:01:07;;;;;;;;;2.33;2.33;;;;;;;;5056034;28;45774;-74
2022/06/10 08:03:32;;;;;;;;;2.00;2.00;;;;;;;;5058758;28;45950;-73
2022/06/10 08:05:59;;;;;;;;;4.00;4.00;;;;;;;;5059988;28;45378;-71
2022/06/10 08:08:24;;;;;;;;;2.67;2.00;;;;;;;;5059653;28;46430;-73
2022/06/10 08:10:49;;;;;;;;;2.00;2.00;;;;;;;;5059880;28;45451;-72
2022/06/10 08:13:15;;;;;;;;;3.00;1.33;;;;;;;;5060091;28;45263;-72
2022/06/10 08:15:41;;;;;;;;;4.33;2.67;;;;;;;;5059822;28;45276;-72
2022/06/10 08:18:06;;;;;;;;;3.33;2.00;;;;;;;;5059670;28;46588;-72
2022/06/10 08:23:18;;;;;;;;;1.50;1.00;;;;;;;;5058399;28;45359;-72
2022/06/10 08:25:43;;;;;;;;;2.00;2.00;;;;;;;;5059094;28;45482;-71
2022/06/10 08:28:08;;;;;;;;;2.33;1.67;;;;;;;;5058715;28;46361;-71
2022/06/10 08:30:34;;;;;;;;;1.33;1.33;;;;;;;;5058613;28;45387;-72
2022/06/10 08:33:03;;;;;;;;;1.00;1.00;;;;;;;;5058977;28;45657;-71
2022/06/10 08:35:28;;;;;;;;;2.00;2.00;;;;;;;;5059030;28;45459;-72
2022/06/10 08:37:53;;;;;;;;;1.67;1.67;;;;;;;;5059250;28;45479;-74
2022/06/10 08:40:24;;;;;;;;;2.75;2.00;;;;;;;;5059814;28;45571;-72
2022/06/10 08:42:51;;;;;;;;;2.00;2.00;;;;;;;;5059394;28;45352;-72
2022/06/10 08:45:20;;;;;;;;;3.00;3.00;;;;;;;;5059337;28;45363;-74
2022/06/10 08:47:51;;;;;;;;;1.75;1.75;;;;;;;;5059160;28;46501;-72
2022/06/10 08:50:22;;;;;;;;;2.67;2.67;;;;;;;;5059116;28;45487;-72
2022/06/10 08:53:03;;;;;;;;;5.33;2.67;;;;;;;;5058780;28;45578;-74
2022/06/10 08:55:42;;;;;;;;;6.33;6.33;;;;;;;;5058954;28;45309;-72
2022/06/10 08:58:13;;;;;;;;;4.00;2.67;;;;;;;;5058593;28;47281;-71
2022/06/10 09:00:40;;;;;;;;;3.00;1.00;;;;;;;;5057514;28;45293;-72
2022/06/10 09:03:15;;;;;;;;;1.33;1.33;;;;;;;;5058300;28;45490;-73
2022/06/10 09:05:51;;;;;;;;;1.67;1.33;;;;;;;;5056588;28;45442;-73
2022/06/10 09:08:23;;;;;;;;;3.00;3.00;;;;;;;;5058197;28;45540;-73
2022/06/10 09:11:17;;;;;;;;;16.00;14.67;;;;;;;;5058012;28;45316;-72
2022/06/10 09:13:57;;;;;;;;;3.33;3.33;;;;;;;;5048477;28;45399;-73
2022/06/10 09:16:35;;;;;;;;;2.67;2.67;;;;;;;;5057447;28;45302;-77
2022/06/10 09:19:19;;;;;;;;;2.67;2.00;;;;;;;;5055647;28;47580;-78
2022/06/10 09:21:57;;;;;;;;;3.00;3.00;;;;;;;;5058267;28;45471;-71
2022/06/10 09:24:32;;;;;;;;;4.00;2.00;;;;;;;;5058412;28;45317;-73
2022/06/10 09:27:05;;;;;;;;;2.00;2.00;;;;;;;;5058250;28;45289;-74
2022/06/10 09:29:32;;;;;;;;;4.00;3.00;;;;;;;;5057849;28;45685;-76
2022/06/10 09:32:07;;;;;;;;;4.67;4.67;;;;;;;;5055159;28;45435;-73
2022/06/10 09:34:42;;;;;;;;;7.33;3.00;;;;;;;;5054612;28;45311;-76
2022/06/10 09:37:12;;;;;;;;;3.00;2.00;;;;;;;;5058221;28;45475;-70
2022/06/10 09:42:40;;;;;;;;;4.00;3.00;;;;;;;;5049269;28;45276;-72
2022/06/10 09:45:05;;;;;;;;;2.00;2.00;;;;;;;;5057490;28;45242;-68
2022/06/10 09:47:44;;;;;;;;;5.00;3.67;;;;;;;;5058883;28;45742;-68
2022/06/10 09:50:21;;;;;;;;;4.00;3.00;;;;;;;;5057500;28;46591;-73
2022/06/10 09:52:55;;;;;;;;;2.00;2.00;;;;;;;;5057436;28;45302;-72
2022/06/10 09:55:29;;;;;;;;;2.33;2.33;;;;;;;;5057533;28;45525;-69
2022/06/10 09:58:00;;;;;;;;;2.00;2.00;;;;;;;;5055658;28;45380;-72
2022/06/10 10:00:41;;;;;;;;;10.33;10.33;;;;;;;;5056993;28;47556;-74
2022/06/10 10:03:21;;;;;;;;;5.00;3.00;;;;;;;;5057152;28;45317;-71
2022/06/10 10:05:52;;;;;;;;;2.33;2.33;;;;;;;;5057276;28;45454;-72
2022/06/10 10:08:17;;;;;;;;;2.00;2.00;;;;;;;;5039668;28;45475;-71
2022/06/10 10:10:48;;;;;;;;;2.00;2.00;;;;;;;;5057170;28;46142;-75
2022/06/10 10:13:16;;;;;;;;;4.67;3.00;;;;;;;;5055226;28;45654;-71
2022/06/10 10:15:49;;;;;;;;;2.00;2.00;;;;;;;;5057094;28;45446;-77
2022/06/10 10:18:33;;;;;;;;;1.67;1.67;;;;;;;;5058154;28;45328;-74
2022/06/10 10:21:15;;;;;;;;;0.67;0.67;;;;;;;;5055621;28;46217;-74
2022/06/10 10:23:43;;;;;;;;;4.67;2.33;;;;;;;;5056922;28;45348;-78
2022/06/10 10:26:15;;;;;;;;;3.00;2.67;;;;;;;;5057542;28;45271;-75
2022/06/10 10:28:42;;;;;;;;;3.33;2.67;;;;;;;;5055337;28;45479;-75
2022/06/10 10:31:25;;;;;;;;;2.33;2.00;;;;;;;;5053931;28;46089;-76
2022/06/10 10:33:50;;;;;;;;;2.00;2.00;;;;;;;;5054457;28;45332;-70
2022/06/10 10:36:36;;;;;;;;;2.67;2.33;;;;;;;;5057066;28;45779;-72
2022/06/10 10:39:28;;;;;;;;;4.67;3.00;;;;;;;;5052654;28;45630;-72
2022/06/10 10:41:55;;;;;;;;;4.67;3.00;;;;;;;;5055343;28;47190;-74
2022/06/10 10:44:27;;;;;;;;;4.00;2.00;;;;;;;;5057081;28;45289;-72
2022/06/10 10:46:58;;;;;;;;;4.33;2.00;;;;;;;;5056965;28;45807;-73
2022/06/10 10:49:25;;;;;;;;;4.00;3.00;;;;;;;;5057530;28;45200;-75
2022/06/10 10:51:51;;;;;;;;;5.67;4.67;;;;;;;;5057430;28;45654;-74
2022/06/10 10:54:22;;;;;;;;;4.67;2.00;;;;;;;;5057248;28;45292;-76
2022/06/10 10:56:49;;;;;;;;;47.00;40.33;;;;;;;;5057425;28;45179;-76
2022/06/10 10:59:22;;;;;;;;;1.33;1.33;;;;;;;;5057394;28;45250;-75
2022/06/10 11:01:50;;;;;;;;;4.33;2.00;;;;;;;;5056881;28;45258;-74
2022/06/10 11:04:24;;;;;;;;;2.00;2.00;;;;;;;;5057305;28;45329;-76
2022/06/10 11:06:57;;;;;;;;;3.00;3.00;;;;;;;;5057348;28;45279;-75
2022/06/10 11:09:24;;;;;;;;;3.00;3.00;;;;;;;;5057377;28;45226;-75
2022/06/10 11:11:50;;;;;;;;;4.00;2.00;;;;;;;;5056892;28;46427;-74
2022/06/10 11:14:25;;;;;;;;;7.67;4.00;;;;;;;;5057017;28;45474;-74
2022/06/10 11:17:11;;;;;;;;;1.00;1.00;;;;;;;;5056963;28;45503;-75
2022/06/10 11:19:36;;;;;;;;;3.00;3.00;;;;;;;;5056681;28;45481;-75
2022/06/10 11:22:01;;;;;;;;;5.00;3.00;;;;;;;;5056771;28;45530;-73
2022/06/10 11:24:30;;;;;;;;;2.00;2.00;;;;;;;;5056930;28;45449;-73
2022/06/10 11:26:58;;;;;;;;;3.33;2.00;;;;;;;;5056350;28;45444;-75
2022/06/10 11:29:24;;;;;;;;;4.00;3.00;;;;;;;;5057046;28;45537;-72
2022/06/10 11:31:57;;;;;;;;;3.67;2.67;;;;;;;;5056383;28;46380;-70
2022/06/10 11:34:29;;;;;;;;;4.00;3.00;;;;;;;;5056570;28;45443;-69
2022/06/10 11:36:55;;;;;;;;;2.33;2.33;;;;;;;;5056995;28;45359;-70
2022/06/10 11:39:33;;;;;;;;;3.00;3.00;;;;;;;;5056103;28;45714;-73
2022/06/10 11:42:19;;;;;;;;;1.00;1.00;;;;;;;;5055606;28;47082;-71
2022/06/10 11:44:46;;;;;;;;;1.00;1.00;;;;;;;;5055221;28;45350;-72
2022/06/10 11:47:17;;;;;;;;;3.67;2.00;;;;;;;;5055959;28;45364;-71
2022/06/10 11:49:45;;;;;;;;;2.00;2.00;;;;;;;;5037843;28;45475;-71
2022/06/10 11:52:15;;;;;;;;;1.67;1.00;;;;;;;;5037834;28;46593;-75
2022/06/10 11:54:43;;;;;;;;;4.33;3.00;;;;;;;;5056138;28;45270;-73
2022/06/10 11:59:58;;;;;;;;;4.00;2.33;;;;;;;;5059924;28;45381;-68
2022/06/10 12:02:43;;;;;;;;;3.00;3.00;;;;;;;;5059872;28;46164;-71
2022/06/10 12:05:09;;;;;;;;;2.00;2.00;;;;;;;;5059882;28;45358;-71
2022/06/10 12:07:36;;;;;;;;;3.33;2.00;;;;;;;;5060079;28;45384;-73
2022/06/10 12:10:05;;;;;;;;;5.00;2.00;;;;;;;;5060224;28;45222;-71
2022/06/10 12:12:34;;;;;;;;;4.33;2.33;;;;;;;;5059767;28;45588;-71
2022/06/10 12:15:00;;;;;;;;;2.00;2.00;;;;;;;;5059747;28;45489;-70
2022/06/10 12:17:26;;;;;;;;;2.00;2.00;;;;;;;;5059899;28;45384;-75
2022/06/10 12:20:04;;;;;;;;;2.00;2.00;;;;;;;;5059976;28;45202;-74
2022/06/10 12:22:29;;;;;;;;;5.67;2.67;;;;;;;;5059758;28;46084;-74
2022/06/10 12:24:55;;;;;;;;;1.00;1.00;;;;;;;;5059556;28;45521;-74
2022/06/10 12:27:39;;;;;;;;;3.33;3.00;;;;;;;;5059978;28;45305;-71
2022/06/10 12:30:05;;;;;;;;;1.67;1.67;;;;;;;;5059923;28;45354;-70
2022/06/10 12:32:40;;;;;;;;;5.00;5.00;;;;;;;;5059443;28;45558;-71
2022/06/10 12:35:08;;;;;;;;;2.00;1.00;;;;;;;;5059370;28;45402;-71
2022/06/10 12:37:46;;;;;;;;;2.67;2.67;;;;;;;;5059739;28;45368;-71
2022/06/10 12:40:14;;;;;;;;;3.67;2.00;;;;;;;;5059669;28;45217;-72
2022/06/10 12:42:57;;;;;;;;;3.33;2.00;;;;;;;;5059012;28;46414;-72
2022/06/10 12:45:30;;;;;;;;;5.00;3.33;;;;;;;;5059016;28;45784;-72
2022/06/10 12:47:57;;;;;;;;;4.00;2.00;;;;;;;;5059494;28;45239;-72
2022/06/10 12:50:27;;;;;;;;;2.00;2.00;;;;;;;;5059534;28;45226;-73
2022/06/10 12:53:05;;;;;;;;;2.00;1.00;;;;;;;;5059064;28;46454;-72
2022/06/10 12:55:36;;;;;;;;;3.00;2.00;;;;;;;;5059047;28;45337;-74
2022/06/10 12:58:02;;;;;;;;;2.00;2.00;;;;;;;;5041046;28;45373;-74
2022/06/10 13:00:36;;;;;;;;;2.00;2.00;;;;;;;;5058992;28;45559;-78
2022/06/10 13:03:13;;;;;;;;;3.00;3.00;;;;;;;;5059038;28;46283;-73
2022/06/10 13:05:41;;;;;;;;;3.00;1.67;;;;;;;;5059103;28;45408;-74
2022/06/10 13:08:25;;;;;;;;;6.00;3.00;;;;;;;;5058948;28;45264;-72
2022/06/10 13:10:55;;;;;;;;;4.33;2.33;;;;;;;;5058891;28;45899;-77
2022/06/10 13:13:22;;;;;;;;;3.00;3.00;;;;;;;;5058849;28;46381;-72
2022/06/10 13:15:48;;;;;;;;;3.67;3.67;;;;;;;;5058601;28;45443;-73
2022/06/10 13:18:16;;;;;;;;;3.00;3.00;;;;;;;;5058895;28;45303;-72
2022/06/10 13:20:42;;;;;;;;;4.33;2.33;;;;;;;;5058748;28;45225;-68
2022/06/10 13:23:26;;;;;;;;;4.00;3.00;;;;;;;;5058669;28;46065;-70
2022/06/10 13:26:12;;;;;;;;;6.00;6.00;;;;;;;;5058724;28;45238;-72
2022/06/10 13:28:39;;;;;;;;;5.67;4.00;;;;;;;;5058582;28;45292;-69
2022/06/10 13:31:10;;;;;;;;;5.00;3.00;;;;;;;;5058482;28;45262;-71
2022/06/10 13:33:35;;;;;;;;;4.33;4.33;;;;;;;;5058497;28;46767;-71
2022/06/10 13:36:01;;;;;;;;;3.00;3.00;;;;;;;;5058393;28;45405;-72
2022/06/10 13:38:29;;;;;;;;;3.67;3.33;;;;;;;;5058479;28;45351;-73
2022/06/10 13:43:45;;;;;;;;;6.00;5.00;;;;;;;;5058450;28;45323;-72
2022/06/10 13:46:13;;;;;;;;;8.00;5.00;;;;;;;;5058285;28;45353;-72
2022/06/10 13:48:38;;;;;;;;;4.00;3.00;;;;;;;;5058391;28;45379;-72
2022/06/10 13:51:16;;;;;;;;;4.00;4.00;;;;;;;;5058642;28;45206;-71
2022/06/10 13:53:53;;;;;;;;;5.67;4.00;;;;;;;;5058005;28;46444;-72
2022/06/10 13:56:23;;;;;;;;;0.50;0.00;;;;;;;;5058178;28;45495;-70
2022/06/10 13:58:52;;;;;;;;;5.00;3.33;;;;;;;;5058442;28;45243;-71
2022/06/10 14:01:18;;;;;;;;;4.00;4.00;;;;;;;;5058133;28;45497;-71
2022/06/10 14:03:45;;;;;;;;;3.00;2.00;;;;;;;;5057938;28;46711;-72
2022/06/10 14:06:40;;;;;;;;;5.00;4.00;;;;;;;;5058174;28;45340;-72
2022/06/10 14:09:12;;;;;;;;;2.00;2.00;;;;;;;;5019085;28;45337;-72
2022/06/10 14:11:39;;;;;;;;;3.00;3.00;;;;;;;;5036133;28;45336;-72
2022/06/10 14:14:13;;;;;;;;;3.33;2.67;;;;;;;;5035329;28;45536;-72
2022/06/10 14:16:39;;;;;;;;;3.67;3.00;;;;;;;;5035508;28;45458;-71
2022/06/10 14:19:07;;;;;;;;;5.00;3.00;;;;;;;;5035633;28;45297;-71
2022/06/10 14:21:35;;;;;;;;;5.00;3.67;;;;;;;;5035153;28;45326;-72
2022/06/10 14:24:00;;;;;;;;;4.00;4.00;;;;;;;;5035425;28;47026;-72
2022/06/10 14:26:26;;;;;;;;;6.67;4.00;;;;;;;;5035297;28;45286;-71
2022/06/10 14:28:53;;;;;;;;;4.67;4.00;;;;;;;;5035418;28;45997;-71
2022/06/10 14:31:25;;;;;;;;;2.33;2.33;;;;;;;;5035719;28;45468;-72
2022/06/10 14:33:50;;;;;;;;;4.00;3.00;;;;;;;;5035227;28;45770;-71
2022/06/10 14:36:20;;;;;;;;;3.00;3.00;;;;;;;;5035558;28;45492;-70
2022/06/10 14:39:01;;;;;;;;;3.33;3.33;;;;;;;;5035322;28;45318;-69
2022/06/10 14:41:26;;;;;;;;;4.00;4.00;;;;;;;;5035010;28;45743;-70
2022/06/10 14:44:03;;;;;;;;;8.67;6.00;;;;;;;;5035125;28;46366;-70
2022/06/10 14:46:29;;;;;;;;;4.00;4.00;;;;;;;;5055292;28;45404;-74
2022/06/10 14:48:55;;;;;;;;;3.00;3.00;;;;;;;;5057603;28;45409;-69
2022/06/10 14:51:24;;;;;;;;;3.00;3.00;;;;;;;;5057656;28;45374;-71
2022/06/10 14:53:55;;;;;;;;;3.00;2.33;;;;;;;;5039275;28;46470;-71
2022/06/10 14:56:35;;;;;;;;;1.33;1.33;;;;;;;;5057174;28;45430;-71
2022/06/10 14:59:11;;;;;;;;;11.00;11.00;;;;;;;;5017147;28;45358;-71
2022/06/10 15:01:36;;;;;;;;;6.33;5.00;;;;;;;;5017265;28;45452;-71
2022/06/10 15:04:01;;;;;;;;;3.00;3.00;;;;;;;;5017262;28;45468;-72
2022/06/10 15:06:37;;;;;;;;;3.00;3.00;;;;;;;;5017148;28;45827;-73
2022/06/10 15:09:23;;;;;;;;;2.67;2.67;;;;;;;;5017310;28;45378;-72
2022/06/10 15:11:49;;;;;;;;;3.67;3.00;;;;;;;;5017491;28;45397;-70
2022/06/10 15:14:15;;;;;;;;;5.00;4.00;;;;;;;;5017004;28;46445;-71
2022/06/10 15:16:42;;;;;;;;;3.00;3.00;;;;;;;;5016781;28;45449;-71